Time;durP1;ratioP1;P1;durP2;ratioP2;P2;SDS_P1;SDS_P2;PMS_P1;PMS_P2;Temp;Humidity;BMP_temperature;BMP_pressure;BME280_temperature;BME280_humidity;BME280_pressure;Samples;Min_cycle;Max_cycle;Signal;HPM_P1;HPM_P2
2021/12/28 00:02:50;;;;;;;307.73;35.55;;;;;;;3.92;70.39;98244.97;10406859;28;20143;-68
2021/12/28 00:07:53;;;;;;;358.05;38.05;;;;;;;4.05;70.62;98242.47;10407647;28;20890;-69
2021/12/28 00:12:55;;;;;;;316.95;39.10;;;;;;;4.25;70.13;98250.69;10406640;28;20045;-69
2021/12/28 00:17:59;;;;;;;697.03;58.72;;;;;;;4.34;70.52;98244.13;10407303;28;20128;-69
2021/12/28 00:23:04;;;;;;;711.92;68.07;;;;;;;4.35;70.05;98236.25;10407420;28;20413;-68
2021/12/28 00:28:06;;;;;;;534.30;48.30;;;;;;;4.31;70.39;98229.59;10407765;28;20079;-68
2021/12/28 00:33:08;;;;;;;172.02;25.38;;;;;;;4.37;70.58;98224.03;10407168;28;20049;-68
2021/12/28 00:38:14;;;;;;;1144.10;61.20;;;;;;;4.22;70.30;98216.41;10406671;28;20124;-68
2021/12/28 00:43:16;;;;;;;472.17;39.22;;;;;;;4.14;70.49;98200.53;10405293;28;20081;-68
2021/12/28 00:48:18;;;;;;;177.80;30.08;;;;;;;4.33;70.14;98206.25;10406351;28;20049;-68
2021/12/28 00:53:20;;;;;;;131.15;39.47;;;;;;;4.34;70.01;98190.59;10406244;28;20457;-68
2021/12/28 00:58:22;;;;;;;240.95;32.03;;;;;;;4.36;70.35;98193.94;10406126;28;20654;-68
2021/12/28 01:03:24;;;;;;;571.08;48.90;;;;;;;4.27;70.35;98191.09;10405705;28;20469;-69
2021/12/28 01:08:27;;;;;;;936.88;53.88;;;;;;;4.03;70.52;98192.59;10404816;28;20099;-69
2021/12/28 01:13:29;;;;;;;71.45;24.73;;;;;;;4.04;70.52;98178.72;10405343;28;20505;-69
2021/12/28 01:18:30;;;;;;;311.85;35.33;;;;;;;3.99;70.72;98194.53;10404300;28;20045;-69
2021/12/28 01:23:36;;;;;;;89.18;32.55;;;;;;;4.04;70.93;98184.75;10405084;28;20136;-69
2021/12/28 01:28:38;;;;;;;165.65;39.65;;;;;;;4.25;70.52;98182.59;10404774;28;20063;-68
2021/12/28 01:33:40;;;;;;;620.20;59.45;;;;;;;4.27;70.45;98170.41;10405280;28;20124;-69
2021/12/28 01:38:41;;;;;;;235.70;44.78;;;;;;;4.38;70.83;98162.78;10404134;28;20486;-69
2021/12/28 01:43:43;;;;;;;237.73;44.67;;;;;;;4.34;70.79;98156.97;10404597;28;20053;-69
2021/12/28 01:48:45;;;;;;;258.77;48.53;;;;;;;4.28;71.05;98166.88;10402654;28;20041;-69
2021/12/28 01:53:49;;;;;;;633.20;52.55;;;;;;;4.23;70.95;98156.78;10403701;28;20136;-68
2021/12/28 01:58:51;;;;;;;117.50;36.80;;;;;;;4.30;71.27;98154.66;10402355;28;20133;-69
2021/12/28 02:03:53;;;;;;;46.58;25.92;;;;;;;4.44;71.33;98141.69;10404143;28;20045;-69
2021/12/28 02:08:55;;;;;;;43.28;23.63;;;;;;;4.61;71.10;98144.88;10402799;28;20473;-69
2021/12/28 02:13:58;;;;;;;37.33;21.60;;;;;;;4.64;71.03;98126.53;10442342;28;20127;-69
2021/12/28 02:19:02;;;;;;;62.33;29.23;;;;;;;4.55;71.34;98119.38;10404824;28;20069;-69
2021/12/28 02:24:07;;;;;;;56.42;28.60;;;;;;;4.47;71.66;98121.63;10402476;28;20060;-69
2021/12/28 02:29:09;;;;;;;51.17;24.65;;;;;;;4.68;71.75;98117.66;10402682;28;20092;-69
2021/12/28 02:34:11;;;;;;;33.35;17.98;;;;;;;5.00;72.21;98112.13;10400425;28;20132;-68
2021/12/28 02:39:13;;;;;;;36.00;18.17;;;;;;;5.27;72.06;98103.34;10402392;28;20056;-69
2021/12/28 02:44:15;;;;;;;35.88;17.00;;;;;;;5.50;72.63;98092.25;10402555;28;20128;-68
2021/12/28 02:49:17;;;;;;;48.30;20.40;;;;;;;5.71;71.79;98091.72;10393725;28;20056;-69
2021/12/28 02:54:20;;;;;;;50.90;22.58;;;;;;;5.71;71.31;98070.97;10403052;28;20054;-69
2021/12/28 02:59:21;;;;;;;40.58;17.30;;;;;;;5.71;72.13;98065.78;10402578;28;20053;-68
2021/12/28 03:04:26;;;;;;;165.95;33.28;;;;;;;5.60;70.73;98069.13;10408720;28;20052;-68
2021/12/28 03:09:27;;;;;;;45.83;22.08;;;;;;;5.46;70.70;98072.66;10419106;28;20052;-68
2021/12/28 03:14:29;;;;;;;39.60;15.60;;;;;;;5.71;72.55;98053.66;10416788;28;20128;-69
2021/12/28 03:19:31;;;;;;;36.95;19.25;;;;;;;5.87;71.56;98046.44;10417538;28;20053;-69
2021/12/28 03:24:33;;;;;;;72.90;28.65;;;;;;;5.74;70.72;98053.41;10417402;28;20405;-69
2021/12/28 03:29:34;;;;;;;58.78;26.50;;;;;;;5.63;70.53;98048.16;10417250;28;20049;-69
2021/12/28 03:34:36;;;;;;;61.47;25.58;;;;;;;5.63;71.73;98048.16;10417633;28;20052;-68
2021/12/28 03:39:38;;;;;;;49.35;22.55;;;;;;;5.61;72.18;98052.63;10416263;28;20033;-69
2021/12/28 03:44:39;;;;;;;54.88;22.13;;;;;;;5.75;72.38;98036.94;10416773;28;20052;-69
2021/12/28 03:49:41;;;;;;;52.38;20.77;;;;;;;5.87;72.29;98030.06;10416260;28;20490;-69
2021/12/28 03:54:43;;;;;;;40.83;18.48;;;;;;;6.10;72.10;98035.25;10417109;28;20088;-69
2021/12/28 03:59:45;;;;;;;72.65;27.45;;;;;;;6.18;71.62;98027.78;10415082;28;20573;-69
2021/12/28 04:04:46;;;;;;;62.80;23.00;;;;;;;6.24;71.75;98021.31;10407521;28;20568;-69
2021/12/28 04:14:53;;;;;;;117.65;31.02;;;;;;;6.25;71.47;98017.78;10369646;28;20125;-69
2021/12/28 04:19:55;;;;;;;56.50;24.20;;;;;;;6.32;71.67;98009.47;10407437;28;20794;-69
2021/12/28 04:24:56;;;;;;;54.50;21.38;;;;;;;6.28;71.60;98005.44;10407795;28;20077;-68
2021/12/28 04:29:58;;;;;;;122.68;33.67;;;;;;;6.34;71.89;98001.56;10408707;28;20137;-69
2021/12/28 04:35:00;;;;;;;68.25;25.60;;;;;;;6.25;71.54;98003.03;10408546;28;20041;-69
2021/12/28 04:40:07;;;;;;;104.53;30.80;;;;;;;6.24;71.59;98000.53;10408113;28;20261;-69
2021/12/28 04:45:11;;;;;;;69.20;27.30;;;;;;;6.28;71.83;97994.22;10408657;28;20057;-69
2021/12/28 04:50:14;;;;;;;89.82;29.10;;;;;;;6.34;71.61;97984.22;10408101;28;20057;-69
2021/12/28 04:55:17;;;;;;;47.47;21.67;;;;;;;6.45;71.53;97990.38;10408151;28;20053;-69
2021/12/28 05:00:21;;;;;;;89.93;31.00;;;;;;;6.50;71.43;97985.66;10407511;28;20482;-69
2021/12/28 05:05:23;;;;;;;86.45;27.10;;;;;;;6.50;71.04;97977.88;10404371;28;20115;-69
2021/12/28 05:10:25;;;;;;;58.30;22.13;;;;;;;6.53;71.50;97972.47;10401296;28;20345;-68
2021/12/28 05:15:27;;;;;;;112.07;24.55;;;;;;;6.51;71.33;97972.56;10408671;28;20557;-68
2021/12/28 05:20:29;;;;;;;301.45;42.40;;;;;;;6.44;71.19;97960.16;10425093;28;20052;-69
2021/12/28 05:25:32;;;;;;;208.82;32.15;;;;;;;6.22;71.67;97948.75;10405907;28;20482;-69
2021/12/28 05:30:35;;;;;;;40.60;17.17;;;;;;;6.16;72.25;97943.16;10404086;28;20057;-68
2021/12/28 05:35:36;;;;;;;39.78;18.35;;;;;;;6.41;72.51;97942.22;10404416;28;20083;-69
2021/12/28 05:40:39;;;;;;;32.58;13.40;;;;;;;6.45;72.68;97928.88;10408559;28;20073;-69
2021/12/28 05:45:43;;;;;;;38.42;16.23;;;;;;;6.64;72.53;97925.72;10404246;28;20069;-69
2021/12/28 05:50:45;;;;;;;29.13;14.38;;;;;;;6.65;71.88;97924.81;10418160;28;20136;-69
2021/12/28 05:55:46;;;;;;;51.47;20.42;;;;;;;6.62;72.24;97918.06;10413313;28;20045;-68
2021/12/28 06:00:48;;;;;;;91.22;23.77;;;;;;;6.58;72.46;97914.03;10405905;28;20531;-69
2021/12/28 06:05:50;;;;;;;38.38;17.25;;;;;;;6.55;73.02;97903.06;10404412;28;20084;-69
2021/12/28 06:10:52;;;;;;;52.47;19.77;;;;;;;6.57;72.87;97898.59;10402220;28;20498;-68
2021/12/28 06:15:54;;;;;;;91.95;26.52;;;;;;;6.46;72.86;97894.19;10400503;28;20061;-68
2021/12/28 06:20:56;;;;;;;47.10;18.95;;;;;;;6.51;73.17;97891.25;10401040;28;20137;-69
2021/12/28 06:25:58;;;;;;;47.33;18.35;;;;;;;6.65;73.06;97884.06;10402023;28;20044;-68
2021/12/28 06:31:00;;;;;;;26.45;12.43;;;;;;;6.71;73.36;97881.00;10402888;28;20102;-68
2021/12/28 06:36:05;;;;;;;21.77;11.73;;;;;;;6.75;73.38;97877.22;10401683;28;20042;-68
2021/12/28 06:41:08;;;;;;;25.70;11.50;;;;;;;6.79;73.09;97881.25;10402794;28;20059;-68
2021/12/28 06:46:10;;;;;;;13.95;6.50;;;;;;;6.91;73.09;97874.28;10403434;28;20041;-69
2021/12/28 06:51:13;;;;;;;12.73;5.80;;;;;;;7.04;72.83;97869.78;10399317;28;20049;-68
2021/12/28 06:56:14;;;;;;;29.42;13.43;;;;;;;6.88;72.72;97872.72;10425200;28;20049;-68
2021/12/28 07:01:16;;;;;;;33.83;15.02;;;;;;;6.69;73.07;97874.28;10401994;28;20045;-68
2021/12/28 07:06:19;;;;;;;15.63;8.52;;;;;;;6.64;73.48;97872.03;10402017;28;20045;-69
2021/12/28 07:11:26;;;;;;;14.52;8.40;;;;;;;6.63;73.80;97880.78;10400859;28;20092;-68
2021/12/28 07:16:27;;;;;;;156.70;20.15;;;;;;;6.77;73.37;97880.53;10401635;28;20128;-69
2021/12/28 07:21:29;;;;;;;104.43;30.42;;;;;;;6.69;72.13;97887.25;10401337;28;20080;-69
2021/12/28 07:26:31;;;;;;;35.00;16.50;;;;;;;6.62;72.29;97883.47;10401644;28;20517;-68
2021/12/28 07:31:33;;;;;;;48.45;20.60;;;;;;;6.68;72.45;97870.00;10403059;28;20053;-68
2021/12/28 07:36:35;;;;;;;30.40;14.35;;;;;;;6.66;72.48;97866.69;10399341;28;20053;-68
2021/12/28 07:41:37;;;;;;;238.43;35.42;;;;;;;6.64;71.86;97876.38;10402000;28;20141;-69
2021/12/28 07:46:38;;;;;;;683.60;39.95;;;;;;;6.42;72.05;97881.53;10401766;28;20456;-68
2021/12/28 07:51:40;;;;;;;41.67;18.50;;;;;;;6.36;72.68;97877.66;10401411;28;20259;-68
2021/12/28 07:56:42;;;;;;;17.88;7.80;;;;;;;6.50;73.12;97874.00;10406584;28;20129;-68
2021/12/28 08:01:44;;;;;;;40.53;18.58;;;;;;;6.55;72.48;97862.31;10408101;28;20092;-69
2021/12/28 08:06:46;;;;;;;53.88;24.15;;;;;;;6.55;71.94;97853.72;10409174;28;20049;-68
2021/12/28 08:11:47;;;;;;;515.53;34.28;;;;;;;6.29;72.47;97877.28;10407254;28;20444;-69
2021/12/28 08:16:49;;;;;;;128.88;30.17;;;;;;;6.40;72.18;97868.69;10408618;28;20105;-68
2021/12/28 08:21:51;;;;;;;34.47;16.52;;;;;;;6.42;72.05;97874.59;10409521;28;20133;-69
2021/12/28 08:26:53;;;;;;;99.78;28.38;;;;;;;6.67;72.00;97877.00;10409176;28;20061;-68
2021/12/28 08:31:55;;;;;;;71.05;26.15;;;;;;;6.84;71.61;97879.09;10409226;28;20493;-68
2021/12/28 08:36:57;;;;;;;53.15;23.45;;;;;;;6.90;71.55;97885.59;10408253;28;20397;-68
2021/12/28 08:41:58;;;;;;;25.95;15.90;;;;;;;6.89;71.91;97883.97;10408696;28;20128;-68
2021/12/28 08:47:00;;;;;;;30.40;18.30;;;;;;;7.10;71.78;97883.09;10406957;28;20081;-69
2021/12/28 08:52:04;;;;;;;19.75;13.40;;;;;;;7.42;71.58;97880.59;10408058;28;20861;-68
2021/12/28 08:57:05;;;;;;;34.50;17.45;;;;;;;7.54;71.71;97866.63;10408009;28;20525;-68
2021/12/28 09:02:08;;;;;;;11.25;6.40;;;;;;;7.48;71.43;97872.31;10407532;28;20053;-68
2021/12/28 09:07:11;;;;;;;14.77;8.50;;;;;;;7.79;71.49;97894.09;10407351;28;20133;-69
2021/12/28 09:12:13;;;;;;;17.63;10.88;;;;;;;7.94;70.90;97914.50;10407723;28;20124;-68
2021/12/28 09:17:15;;;;;;;16.17;7.78;;;;;;;8.04;70.64;97904.16;10406352;28;20050;-68
2021/12/28 09:22:17;;;;;;;199.82;41.25;;;;;;;7.91;69.84;97906.94;10406759;28;20049;-68
2021/12/28 09:27:19;;;;;;;23.30;14.43;;;;;;;7.94;70.13;97904.06;10405734;28;20045;-68
2021/12/28 09:32:20;;;;;;;23.35;13.70;;;;;;;8.06;70.13;97909.25;10406569;28;20577;-68
2021/12/28 09:37:22;;;;;;;25.85;14.95;;;;;;;8.16;70.12;97913.59;10406013;28;20471;-68
2021/12/28 09:42:24;;;;;;;17.80;12.43;;;;;;;8.31;69.93;97895.88;10406103;28;20115;-69
2021/12/28 09:47:27;;;;;;;10.48;7.32;;;;;;;8.52;69.67;97904.53;10406270;28;20056;-69
2021/12/28 09:52:28;;;;;;;24.15;13.63;;;;;;;8.59;69.42;97897.84;10405681;28;20476;-68
2021/12/28 09:57:30;;;;;;;11.68;6.75;;;;;;;8.76;69.31;97899.88;10406140;28;20053;-69
2021/12/28 10:02:32;;;;;;;29.17;15.27;;;;;;;8.89;69.27;97908.31;10405540;28;20273;-69
2021/12/28 10:07:37;;;;;;;50.40;27.67;;;;;;;8.89;69.31;97903.09;10405043;28;20494;-69
2021/12/28 10:12:45;;;;;;;105.75;35.50;;;;;;;8.82;68.96;97896.75;10404732;28;20049;-68
2021/12/28 10:17:49;;;;;;;17.63;12.63;;;;;;;8.82;69.57;97891.53;10404764;28;20132;-68
2021/12/28 10:23:02;;;;;;;25.40;14.30;;;;;;;8.89;69.41;97882.25;10403765;28;20518;-69
2021/12/28 10:28:10;;;;;;;27.05;16.30;;;;;;;8.97;69.63;97886.81;10404953;28;20084;-68
2021/12/28 10:33:17;;;;;;;18.58;11.15;;;;;;;9.27;69.61;97889.38;10404669;28;20144;-69
2021/12/28 10:38:21;;;;;;;11.10;6.43;;;;;;;9.31;69.13;97873.31;10404406;28;20045;-68
2021/12/28 10:43:30;;;;;;;16.60;9.55;;;;;;;9.35;69.15;97869.50;10404409;28;20053;-68
2021/12/28 10:48:37;;;;;;;18.30;12.25;;;;;;;9.55;68.75;97868.56;10404408;28;20042;-68
2021/12/28 10:59:03;;;;;;;18.33;14.48;;;;;;;9.44;68.53;97857.44;10404596;28;20443;-68
2021/12/28 11:04:11;;;;;;;8.65;6.30;;;;;;;9.46;68.61;97838.06;10404292;28;20159;-68
2021/12/28 11:09:17;;;;;;;9.52;5.53;;;;;;;9.61;68.27;97833.25;10403555;28;20111;-69
2021/12/28 11:14:27;;;;;;;11.38;7.35;;;;;;;9.82;67.96;97820.13;10403380;28;20541;-69
2021/12/28 11:19:31;;;;;;;9.75;6.32;;;;;;;10.09;67.51;97809.81;10403790;28;20136;-68
2021/12/28 11:24:39;;;;;;;6.57;4.50;;;;;;;10.29;67.23;97798.34;10403726;28;20092;-69
2021/12/28 11:29:41;;;;;;;15.07;10.05;;;;;;;10.45;67.05;97794.19;10409282;28;20533;-69
2021/12/28 11:34:43;;;;;;;7.45;4.15;;;;;;;10.42;67.01;97791.00;10411461;28;20470;-68
2021/12/28 11:39:49;;;;;;;6.03;3.75;;;;;;;10.24;67.28;97782.25;10410545;28;20405;-68
2021/12/28 11:44:51;;;;;;;8.25;5.50;;;;;;;10.16;67.89;97774.31;10409621;28;20141;-69
2021/12/28 11:49:57;;;;;;;8.13;5.15;;;;;;;10.08;68.48;97761.13;10410950;28;20086;-75
2021/12/28 11:54:59;;;;;;;9.18;4.53;;;;;;;9.99;68.89;97749.72;10408822;28;20482;-76
2021/12/28 12:00:10;;;;;;;7.28;3.30;;;;;;;10.14;68.62;97737.06;10410321;28;20486;-76
2021/12/28 12:05:18;;;;;;;3.92;2.42;;;;;;;10.31;68.01;97733.72;10410564;28;20091;-76
2021/12/28 12:10:27;;;;;;;5.25;2.20;;;;;;;10.28;67.96;97731.38;10409405;28;20456;-75
2021/12/28 12:15:41;;;;;;;5.60;2.10;;;;;;;10.19;68.32;97713.97;10409768;28;20048;-75
2021/12/28 12:20:58;;;;;;;3.30;1.48;;;;;;;10.29;67.84;97709.53;10410214;28;20049;-75
2021/12/28 12:26:06;;;;;;;2.85;1.70;;;;;;;10.39;67.99;97702.47;10408320;28;20119;-75
2021/12/28 12:31:11;;;;;;;2.97;1.92;;;;;;;10.43;68.11;97704.66;10409348;28;20424;-76
2021/12/28 12:36:27;;;;;;;5.80;3.30;;;;;;;10.35;68.41;97703.72;10408933;28;20490;-75
2021/12/28 12:41:49;;;;;;;3.00;1.60;;;;;;;10.06;68.92;97697.78;10407742;28;20140;-74
2021/12/28 12:46:52;;;;;;;2.35;1.50;;;;;;;10.08;69.08;97693.22;10409100;28;20049;-75
2021/12/28 12:52:01;;;;;;;1.85;1.30;;;;;;;9.99;69.27;97676.63;10408525;28;20409;-75
2021/12/28 12:57:05;;;;;;;1.40;1.17;;;;;;;9.96;69.30;97676.09;10407309;28;20050;-75
2021/12/28 13:02:10;;;;;;;2.67;1.70;;;;;;;10.01;69.40;97672.06;10408267;28;20059;-75
2021/12/28 13:07:14;;;;;;;1.80;1.20;;;;;;;9.94;69.47;97665.78;10407798;28;20057;-76
2021/12/28 13:12:18;;;;;;;7.25;4.53;;;;;;;9.97;69.45;97649.03;10407585;28;20124;-76
2021/12/28 13:17:35;;;;;;;16.70;8.68;;;;;;;9.98;69.36;97642.81;10407820;28;20368;-75
2021/12/28 13:22:43;;;;;;;22.38;9.05;;;;;;;9.98;69.50;97641.03;10406300;28;20145;-76
2021/12/28 13:27:45;;;;;;;12.82;6.20;;;;;;;9.88;69.44;97637.66;10404318;28;20137;-72
2021/12/28 13:32:47;;;;;;;6.18;3.90;;;;;;;9.82;69.77;97640.00;10404518;28;20140;-73
2021/12/28 13:37:52;;;;;;;5.80;2.92;;;;;;;9.73;70.48;97664.34;10403964;28;20064;-73
2021/12/28 13:43:00;;;;;;;3.88;1.40;;;;;;;9.68;70.77;97666.56;10405800;28;20081;-74
2021/12/28 13:48:10;;;;;;;5.28;1.58;;;;;;;9.41;70.44;97662.84;10405164;28;20041;-74
2021/12/28 13:53:16;;;;;;;9.95;2.08;;;;;;;9.21;69.33;97658.63;10404954;28;20052;-74
2021/12/28 13:58:42;;;;;;;5.53;2.13;;;;;;;9.17;69.54;97696.38;10404384;28;20037;-75
2021/12/28 14:03:54;;;;;;;8.65;2.67;;;;;;;9.13;68.46;97709.81;10399812;28;20056;-74
2021/12/28 14:09:01;;;;;;;12.82;2.70;;;;;;;9.22;68.35;97707.19;10405069;28;20045;-74
2021/12/28 14:14:18;;;;;;;8.88;2.85;;;;;;;9.22;67.15;97701.19;10403282;28;20080;-74
2021/12/28 14:19:23;;;;;;;15.05;3.97;;;;;;;9.27;66.22;97693.75;10405588;28;20087;-74
2021/12/28 14:24:29;;;;;;;16.30;3.85;;;;;;;9.31;65.73;97711.59;10404469;28;20488;-74
2021/12/28 14:29:32;;;;;;;17.15;4.57;;;;;;;9.40;65.52;97715.19;10404224;28;20132;-74
2021/12/28 14:34:41;;;;;;;12.88;2.72;;;;;;;9.37;64.73;97734.53;10404300;28;20072;-74
2021/12/28 14:39:53;;;;;;;19.00;3.80;;;;;;;9.35;64.50;97733.00;10404312;28;20077;-74
2021/12/28 14:45:00;;;;;;;14.85;2.85;;;;;;;9.17;63.40;97748.53;10404022;28;20477;-74
2021/12/28 14:50:14;;;;;;;13.48;2.72;;;;;;;9.02;63.16;97772.50;10403807;28;20052;-74
2021/12/28 14:55:30;;;;;;;21.48;3.03;;;;;;;8.78;62.85;97780.69;10404205;28;20060;-74
2021/12/28 15:00:39;;;;;;;13.73;3.85;;;;;;;8.67;63.45;97791.19;10404568;28;20049;-74
2021/12/28 15:05:46;;;;;;;18.02;5.38;;;;;;;8.72;64.26;97797.69;10411484;28;20503;-74
2021/12/28 15:10:54;;;;;;;16.83;4.70;;;;;;;8.69;64.65;97794.47;10410961;28;20049;-74
2021/12/28 15:15:58;;;;;;;17.50;3.33;;;;;;;8.84;64.37;97801.00;10411768;28;20053;-73
2021/12/28 15:21:01;;;;;;;18.95;4.15;;;;;;;8.89;64.01;97803.22;10410095;28;20573;-73
2021/12/28 15:26:03;;;;;;;18.73;3.75;;;;;;;8.98;64.21;97800.63;10410821;28;20081;-73
2021/12/28 15:31:04;;;;;;;18.77;3.50;;;;;;;9.01;64.06;97802.16;10410016;28;20161;-72
2021/12/28 15:36:12;;;;;;;20.88;3.60;;;;;;;8.98;64.16;97792.81;10411023;28;20045;-73
2021/12/28 15:41:14;;;;;;;15.15;3.95;;;;;;;8.74;64.49;97787.94;10411287;28;20482;-73
2021/12/28 15:46:15;;;;;;;18.90;3.67;;;;;;;8.75;64.49;97794.00;10411079;28;20059;-73
2021/12/28 15:51:18;;;;;;;19.85;3.58;;;;;;;8.68;64.75;97806.72;10395158;28;20056;-73
2021/12/28 15:56:20;;;;;;;20.98;3.70;;;;;;;8.72;64.77;97810.72;10407724;28;21038;-74
2021/12/28 16:01:23;;;;;;;17.80;3.63;;;;;;;8.91;64.95;97814.34;10407537;28;20084;-74
2021/12/28 16:06:25;;;;;;;26.88;4.60;;;;;;;8.89;65.43;97806.66;10395741;28;20057;-74
2021/12/28 16:11:27;;;;;;;24.08;5.43;;;;;;;8.59;65.64;97814.47;10406103;28;20128;-67
2021/12/28 16:16:29;;;;;;;20.85;4.00;;;;;;;8.19;65.62;97822.22;10405469;28;20053;-67
2021/12/28 16:21:30;;;;;;;16.63;3.40;;;;;;;8.22;65.63;97810.72;10407084;28;20057;-67
2021/12/28 16:26:33;;;;;;;15.35;3.20;;;;;;;8.10;65.90;97806.50;10406807;28;20152;-67
2021/12/28 16:31:34;;;;;;;21.67;4.32;;;;;;;7.94;66.08;97810.38;10406084;28;20046;-67
2021/12/28 16:36:39;;;;;;;18.70;3.58;;;;;;;7.95;65.66;97806.00;10406409;28;20069;-67
2021/12/28 16:41:43;;;;;;;18.55;3.65;;;;;;;7.95;65.51;97806.00;10406262;28;20041;-67
2021/12/28 16:46:46;;;;;;;14.55;3.05;;;;;;;8.11;65.17;97809.00;10404622;28;20140;-67
2021/12/28 16:51:48;;;;;;;19.13;3.63;;;;;;;8.22;64.82;97808.13;10401987;28;20049;-67
2021/12/28 16:56:51;;;;;;;17.52;3.67;;;;;;;8.16;64.05;97819.84;10405002;28;20106;-67
2021/12/28 17:01:53;;;;;;;19.35;3.45;;;;;;;8.13;63.72;97814.91;10404926;28;20041;-67
2021/12/28 17:06:56;;;;;;;21.58;4.65;;;;;;;8.19;63.53;97809.19;10405248;28;20049;-67
2021/12/28 17:11:58;;;;;;;15.85;4.32;;;;;;;8.21;63.05;97814.28;10404849;28;20076;-67
2021/12/28 17:17:00;;;;;;;21.02;3.63;;;;;;;8.24;62.63;97801.00;10403293;28;20067;-67
2021/12/28 17:22:02;;;;;;;21.65;4.38;;;;;;;8.25;62.32;97810.47;10406144;28;20049;-67
2021/12/28 17:27:05;;;;;;;20.98;4.18;;;;;;;8.28;62.22;97797.19;10405676;28;20532;-68
2021/12/28 17:32:07;;;;;;;23.52;4.22;;;;;;;8.19;62.18;97795.34;10404271;28;20120;-67
2021/12/28 17:37:08;;;;;;;20.58;4.22;;;;;;;8.29;61.96;97791.84;10412312;28;20124;-67
2021/12/28 17:42:10;;;;;;;25.63;5.30;;;;;;;8.20;62.69;97784.81;10405799;28;20112;-67
2021/12/28 17:47:12;;;;;;;19.17;4.20;;;;;;;7.88;64.00;97769.25;10403766;28;20160;-67
2021/12/28 17:52:13;;;;;;;22.65;4.40;;;;;;;7.87;64.52;97780.63;10406526;28;20444;-67
2021/12/28 17:57:16;;;;;;;27.63;4.20;;;;;;;7.87;64.68;97777.19;10405141;28;20459;-67
2021/12/28 18:02:18;;;;;;;23.33;4.10;;;;;;;7.86;64.89;97775.53;10404442;28;20482;-67
2021/12/28 18:07:20;;;;;;;21.98;4.13;;;;;;;8.00;64.60;97777.81;10403798;28;20489;-67
2021/12/28 18:12:23;;;;;;;21.48;4.13;;;;;;;7.98;64.83;97775.34;10404987;28;20387;-67
2021/12/28 18:17:25;;;;;;;26.27;4.43;;;;;;;7.99;64.88;97782.22;10403142;28;20054;-67
2021/12/28 18:22:27;;;;;;;15.73;3.92;;;;;;;8.04;65.27;97774.81;10405244;28;20136;-67
2021/12/28 18:27:29;;;;;;;21.83;3.92;;;;;;;7.96;65.64;97774.63;10403253;28;20057;-67
2021/12/28 18:32:30;;;;;;;22.10;4.20;;;;;;;7.94;65.99;97780.91;10386353;28;20056;-67
2021/12/28 18:37:32;;;;;;;18.63;3.60;;;;;;;7.96;65.97;97787.66;10393816;28;20045;-67
2021/12/28 18:42:34;;;;;;;26.02;5.13;;;;;;;7.76;66.89;97801.47;10398301;28;20053;-68
2021/12/28 18:47:36;;;;;;;20.17;3.72;;;;;;;7.90;66.64;97788.16;10399526;28;20178;-67
2021/12/28 18:52:38;;;;;;;43.80;13.48;;;;;;;7.93;66.43;97779.28;10399477;28;20153;-67
2021/12/28 18:57:40;;;;;;;30.05;9.80;;;;;;;7.95;66.49;97779.97;10396442;28;20080;-67
2021/12/28 19:02:42;;;;;;;19.00;5.95;;;;;;;7.89;66.87;97790.91;10398882;28;20077;-67
2021/12/28 19:07:45;;;;;;;22.75;4.43;;;;;;;7.94;66.70;97799.13;10386820;28;20055;-67
2021/12/28 19:12:50;;;;;;;37.08;15.85;;;;;;;7.94;66.91;97805.16;10381004;28;20367;-67
2021/12/28 19:17:54;;;;;;;20.83;4.70;;;;;;;7.87;67.49;97808.41;10399055;28;20081;-67
2021/12/28 19:22:57;;;;;;;21.10;4.40;;;;;;;7.92;67.46;97812.28;10390953;28;20064;-67
2021/12/28 19:27:59;;;;;;;17.98;4.00;;;;;;;7.84;68.21;97819.91;10395564;28;20132;-67
2021/12/28 19:33:01;;;;;;;22.92;4.35;;;;;;;7.81;68.46;97829.75;10392065;28;20052;-67
2021/12/28 19:38:03;;;;;;;20.67;4.30;;;;;;;7.72;69.13;97835.69;10397170;28;20050;-67
2021/12/28 19:43:05;;;;;;;17.67;4.03;;;;;;;7.63;69.53;97842.44;10397634;28;20156;-67
2021/12/28 19:48:07;;;;;;;18.13;4.18;;;;;;;7.58;69.99;97844.59;10402004;28;20104;-67
2021/12/28 19:53:10;;;;;;;20.08;8.10;;;;;;;7.60;70.32;97858.31;10405454;28;20132;-67
2021/12/28 19:58:11;;;;;;;19.08;5.20;;;;;;;7.52;70.86;97855.50;10406625;28;20514;-67
2021/12/28 20:03:13;;;;;;;20.50;7.15;;;;;;;7.49;71.09;97867.94;10406665;28;20083;-67
2021/12/28 20:08:15;;;;;;;20.85;5.35;;;;;;;7.47;71.44;97882.84;10406464;28;20049;-67
2021/12/28 20:13:18;;;;;;;23.40;4.32;;;;;;;7.52;71.49;97896.28;10408640;28;20141;-67
2021/12/28 20:18:20;;;;;;;20.27;4.10;;;;;;;7.61;71.25;97891.16;10407571;28;20405;-67
2021/12/28 20:23:22;;;;;;;15.52;3.97;;;;;;;7.64;71.16;97903.94;10407347;28;20053;-67
2021/12/28 20:28:25;;;;;;;15.93;3.28;;;;;;;7.66;71.47;97941.06;10410130;28;20072;-68
2021/12/28 20:33:27;;;;;;;12.35;2.55;;;;;;;7.74;71.15;97943.88;10412283;28;20069;-68
2021/12/28 20:38:28;;;;;;;15.90;4.35;;;;;;;7.95;70.78;97941.34;10408015;28;20394;-67
2021/12/28 20:43:32;;;;;;;20.58;5.97;;;;;;;7.84;71.00;97947.41;10417562;28;20131;-67
2021/12/28 20:48:34;;;;;;;12.60;3.08;;;;;;;7.80;71.09;97952.97;10411553;28;20148;-69
2021/12/28 20:53:36;;;;;;;22.08;6.25;;;;;;;7.73;71.43;97957.84;10408457;28;20089;-67
2021/12/28 20:58:39;;;;;;;18.73;4.32;;;;;;;7.74;71.55;97962.09;10407314;28;20104;-69
2021/12/28 21:03:40;;;;;;;15.65;4.22;;;;;;;7.78;71.61;97955.69;10406725;28;20045;-69
2021/12/28 21:08:43;;;;;;;14.48;3.20;;;;;;;7.78;71.75;97978.28;10402065;28;20048;-69
2021/12/28 21:13:45;;;;;;;10.18;3.30;;;;;;;7.82;71.52;97975.31;10407419;28;20140;-69
2021/12/28 21:18:47;;;;;;;10.60;2.65;;;;;;;7.79;71.83;97985.97;10400075;28;20038;-69
2021/12/28 21:23:52;;;;;;;9.88;3.40;;;;;;;7.91;71.50;97987.63;10421175;28;20045;-68
2021/12/28 21:28:54;;;;;;;8.18;2.40;;;;;;;7.80;71.97;97992.84;10406071;28;20101;-69
2021/12/28 21:33:56;;;;;;;7.53;1.90;;;;;;;7.78;72.04;97994.75;10404782;28;20495;-68
2021/12/28 21:38:57;;;;;;;8.80;4.80;;;;;;;7.76;72.32;98011.41;10405461;28;20120;-68
2021/12/28 21:43:59;;;;;;;9.27;3.65;;;;;;;7.71;72.68;98021.38;10404001;28;20413;-68
2021/12/28 21:49:04;;;;;;;6.18;2.45;;;;;;;7.73;72.82;98038.50;10404516;28;20592;-68
2021/12/28 21:54:06;;;;;;;8.27;1.50;;;;;;;7.69;73.06;98044.06;10403978;28;20037;-68
2021/12/28 21:59:09;;;;;;;4.88;1.58;;;;;;;7.69;73.42;98050.09;10404281;28;20045;-68
2021/12/28 22:04:11;;;;;;;2.45;1.13;;;;;;;7.85;72.91;98068.75;10404169;28;20057;-68
2021/12/28 22:09:13;;;;;;;2.95;1.50;;;;;;;7.86;73.01;98073.03;10403922;28;20444;-68
2021/12/28 22:14:15;;;;;;;4.13;1.40;;;;;;;7.89;72.76;98083.22;10401968;28;20123;-68
2021/12/28 22:19:16;;;;;;;3.53;1.10;;;;;;;7.93;72.78;98092.44;10403483;28;20480;-68
2021/12/28 22:24:18;;;;;;;2.25;1.10;;;;;;;7.85;73.08;98113.00;10403622;28;20057;-68
2021/12/28 22:29:21;;;;;;;3.40;1.10;;;;;;;8.04;72.62;98121.03;10403245;28;20155;-68
2021/12/28 22:34:25;;;;;;;2.10;1.20;;;;;;;8.04;72.76;98118.44;10403269;28;20140;-68
2021/12/28 22:39:29;;;;;;;3.28;1.33;;;;;;;8.07;72.60;98125.19;10403727;28;20077;-68
2021/12/28 22:44:30;;;;;;;2.90;1.27;;;;;;;8.04;72.74;98131.47;10403003;28;20049;-68
2021/12/28 22:49:32;;;;;;;3.28;1.33;;;;;;;8.12;72.46;98141.31;10403543;28;20141;-68
2021/12/28 22:54:34;;;;;;;2.45;1.20;;;;;;;8.09;72.77;98151.09;10402981;28;20052;-68
2021/12/28 22:59:36;;;;;;;3.60;1.25;;;;;;;8.17;72.55;98172.19;10404117;28;20143;-68
2021/12/28 23:04:37;;;;;;;3.13;1.30;;;;;;;8.15;72.62;98193.16;10402639;28;20060;-68
2021/12/28 23:09:45;;;;;;;2.30;1.23;;;;;;;8.14;72.56;98203.69;10403487;28;20049;-68
2021/12/28 23:14:46;;;;;;;1.67;0.90;;;;;;;8.24;72.27;98215.88;10402807;28;20089;-68
2021/12/28 23:19:49;;;;;;;2.47;1.20;;;;;;;8.33;72.24;98216.94;10402328;28;20111;-68
2021/12/28 23:24:50;;;;;;;2.15;1.10;;;;;;;8.33;71.99;98227.34;10408664;28;20727;-68
2021/12/28 23:29:52;;;;;;;1.38;0.90;;;;;;;8.32;72.25;98241.34;10410421;28;20127;-68
2021/12/28 23:34:54;;;;;;;1.23;0.90;;;;;;;8.17;72.74;98247.72;10410068;28;20051;-68